Time;durP1;ratioP1;P1;durP2;ratioP2;P2;SDS_P1;SDS_P2;PMS_P1;PMS_P2;Temp;Humidity;BMP_temperature;BMP_pressure;BME280_temperature;BME280_humidity;BME280_pressure;Samples;Min_cycle;Max_cycle;Signal;HPM_P1;HPM_P2
2024/01/02 00:01:07;;;;;;;7.38;3.03;;;;;;;;;;5052859;28;20052;-72
2024/01/02 00:03:52;;;;;;;17.65;3.03;;;;;;;;;;5037445;28;20108;-72
2024/01/02 00:06:39;;;;;;;7.45;2.53;;;;;;;;;;5052227;28;20024;-72
2024/01/02 00:09:24;;;;;;;9.90;3.33;;;;;;;;;;5052634;28;20112;-72
2024/01/02 00:12:10;;;;;;;9.95;3.95;;;;;;;;;;5038025;28;20025;-72
2024/01/02 00:14:55;;;;;;;8.73;3.20;;;;;;;;;;5062793;28;20017;-72
2024/01/02 00:17:41;;;;;;;9.48;3.28;;;;;;;;;;5071297;28;20056;-71
2024/01/02 00:20:27;;;;;;;10.38;4.00;;;;;;;;;;5071795;28;20031;-71
2024/01/02 00:23:12;;;;;;;8.18;3.15;;;;;;;;;;5071555;28;20071;-72
2024/01/02 00:25:58;;;;;;;10.50;3.75;;;;;;;;;;5072274;28;20136;-72
2024/01/02 00:28:44;;;;;;;11.25;3.78;;;;;;;;;;5068661;28;20024;-71
2024/01/02 00:31:29;;;;;;;12.98;4.38;;;;;;;;;;5051581;28;20029;-72
2024/01/02 00:34:15;;;;;;;17.08;4.35;;;;;;;;;;5052003;28;20080;-72
2024/01/02 00:37:00;;;;;;;14.18;5.47;;;;;;;;;;5051403;28;20033;-72
2024/01/02 00:39:46;;;;;;;23.33;6.47;;;;;;;;;;5051973;28;20021;-71
2024/01/02 00:42:32;;;;;;;16.17;5.55;;;;;;;;;;5051860;28;20021;-72
2024/01/02 00:45:17;;;;;;;15.38;5.40;;;;;;;;;;5051894;28;20017;-71
2024/01/02 00:48:03;;;;;;;17.73;5.68;;;;;;;;;;5064410;28;20021;-72
2024/01/02 00:50:49;;;;;;;26.55;6.53;;;;;;;;;;5061630;28;20096;-71
2024/01/02 00:53:35;;;;;;;13.57;5.13;;;;;;;;;;5063495;28;20126;-72
2024/01/02 00:56:20;;;;;;;15.13;4.93;;;;;;;;;;5051983;28;20025;-71
2024/01/02 00:59:06;;;;;;;31.70;7.43;;;;;;;;;;5069899;28;20029;-72
2024/01/02 01:01:51;;;;;;;14.45;4.32;;;;;;;;;;5055637;28;20028;-72
2024/01/02 01:04:41;;;;;;;24.00;4.43;;;;;;;;;;5058559;28;20032;-71
2024/01/02 01:07:27;;;;;;;25.27;4.85;;;;;;;;;;5050834;28;20018;-71
2024/01/02 01:10:13;;;;;;;24.50;5.63;;;;;;;;;;5054347;28;20029;-72
2024/01/02 01:12:58;;;;;;;23.85;5.22;;;;;;;;;;5051652;28;20112;-71
2024/01/02 01:15:44;;;;;;;20.95;4.93;;;;;;;;;;5058416;28;20024;-71
2024/01/02 01:18:30;;;;;;;13.85;6.40;;;;;;;;;;5037946;28;20031;-71
2024/01/02 01:21:15;;;;;;;20.98;4.93;;;;;;;;;;5052546;28;20024;-71
2024/01/02 01:24:01;;;;;;;26.98;5.07;;;;;;;;;;5051783;28;20127;-71
2024/01/02 01:26:46;;;;;;;16.02;5.63;;;;;;;;;;5052685;28;20033;-71
2024/01/02 01:29:32;;;;;;;18.38;5.13;;;;;;;;;;5069730;28;20067;-71
2024/01/02 01:32:18;;;;;;;25.10;5.05;;;;;;;;;;5070007;28;20504;-71
2024/01/02 01:35:04;;;;;;;23.90;5.80;;;;;;;;;;5070949;28;20032;-71
2024/01/02 01:37:49;;;;;;;13.25;4.32;;;;;;;;;;5070600;28;20025;-71
2024/01/02 01:40:35;;;;;;;23.70;5.43;;;;;;;;;;5059912;28;20146;-71
2024/01/02 01:43:21;;;;;;;16.13;5.32;;;;;;;;;;5038799;28;20075;-71
2024/01/02 01:46:06;;;;;;;20.58;5.25;;;;;;;;;;5067125;28;20017;-71
2024/01/02 01:48:52;;;;;;;16.67;5.30;;;;;;;;;;5063800;28;20087;-71
2024/01/02 01:51:40;;;;;;;24.23;7.32;;;;;;;;;;5039882;28;20451;-71
2024/01/02 01:54:26;;;;;;;16.17;6.10;;;;;;;;;;5042451;28;20084;-71
2024/01/02 01:57:13;;;;;;;17.90;5.38;;;;;;;;;;5039034;28;20029;-71
2024/01/02 01:59:59;;;;;;;16.38;5.65;;;;;;;;;;5042594;28;20482;-71
2024/01/02 02:02:44;;;;;;;21.42;5.82;;;;;;;;;;5054159;28;20167;-71
2024/01/02 02:05:31;;;;;;;17.70;6.70;;;;;;;;;;5041407;28;20055;-71
2024/01/02 02:08:17;;;;;;;19.90;4.95;;;;;;;;;;5045059;28;20017;-71
2024/01/02 02:11:03;;;;;;;15.35;4.97;;;;;;;;;;5057584;28;20021;-71
2024/01/02 02:13:48;;;;;;;20.10;5.80;;;;;;;;;;5055227;28;20017;-71
2024/01/02 02:16:34;;;;;;;17.42;4.47;;;;;;;;;;5061217;28;20047;-71
2024/01/02 02:19:20;;;;;;;29.08;7.38;;;;;;;;;;5072998;28;20056;-71
2024/01/02 02:22:06;;;;;;;21.40;6.00;;;;;;;;;;5074073;28;20107;-71
2024/01/02 02:24:51;;;;;;;17.10;5.90;;;;;;;;;;5054975;28;20024;-71
2024/01/02 02:27:37;;;;;;;23.08;7.63;;;;;;;;;;5053950;28;20024;-71
2024/01/02 02:30:23;;;;;;;18.40;5.43;;;;;;;;;;5053595;28;20056;-71
2024/01/02 02:33:08;;;;;;;26.55;5.70;;;;;;;;;;5054684;28;20059;-71
2024/01/02 02:36:42;;;;;;;17.85;4.88;;;;;;;;;;5056208;28;20177;-71
2024/01/02 02:39:28;;;;;;;16.95;7.03;;;;;;;;;;5052881;28;20578;-71
2024/01/02 02:42:13;;;;;;;25.85;7.82;;;;;;;;;;5064638;28;20161;-71
2024/01/02 02:44:59;;;;;;;19.60;7.47;;;;;;;;;;5073816;28;20017;-71
2024/01/02 02:47:45;;;;;;;22.00;8.05;;;;;;;;;;5058311;28;20024;-71
2024/01/02 02:50:30;;;;;;;20.67;7.85;;;;;;;;;;5057363;28;20036;-71
2024/01/02 02:53:16;;;;;;;25.27;7.78;;;;;;;;;;5044311;28;20059;-71
2024/01/02 02:56:03;;;;;;;24.23;9.38;;;;;;;;;;5052123;28;20033;-71
2024/01/02 02:58:49;;;;;;;24.70;6.72;;;;;;;;;;5071054;28;20025;-71
2024/01/02 03:01:34;;;;;;;26.52;8.02;;;;;;;;;;5073034;28;20070;-71
2024/01/02 03:04:20;;;;;;;24.35;7.22;;;;;;;;;;5064404;28;20495;-71
2024/01/02 03:07:05;;;;;;;25.35;9.45;;;;;;;;;;5058300;28;20059;-71
2024/01/02 03:09:51;;;;;;;25.45;7.78;;;;;;;;;;5071751;28;20378;-71
2024/01/02 03:12:37;;;;;;;27.50;8.43;;;;;;;;;;5072251;28;20459;-71
2024/01/02 03:15:22;;;;;;;30.52;9.32;;;;;;;;;;5072009;28;20023;-71
2024/01/02 03:18:08;;;;;;;31.27;8.60;;;;;;;;;;5072190;28;20111;-71
2024/01/02 03:20:53;;;;;;;29.35;8.07;;;;;;;;;;5071681;28;20024;-71
2024/01/02 03:23:39;;;;;;;24.52;7.65;;;;;;;;;;5072198;28;20044;-71
2024/01/02 03:26:25;;;;;;;23.02;7.53;;;;;;;;;;5072238;28;20472;-71
2024/01/02 03:29:10;;;;;;;20.20;8.00;;;;;;;;;;5072790;28;20401;-71
2024/01/02 03:31:56;;;;;;;28.85;9.95;;;;;;;;;;5071292;28;20062;-71
2024/01/02 03:34:42;;;;;;;28.95;9.13;;;;;;;;;;5071215;28;20494;-71
2024/01/02 03:37:27;;;;;;;39.45;9.70;;;;;;;;;;5058156;28;20555;-71
2024/01/02 03:40:14;;;;;;;32.58;10.73;;;;;;;;;;5069037;28;20448;-71
2024/01/02 03:43:00;;;;;;;34.40;10.75;;;;;;;;;;5070529;28;20035;-71
2024/01/02 03:45:46;;;;;;;31.02;10.75;;;;;;;;;;5070728;28;20025;-71
2024/01/02 03:48:32;;;;;;;38.83;11.23;;;;;;;;;;5056595;28;20064;-71
2024/01/02 03:51:17;;;;;;;25.85;9.88;;;;;;;;;;5051910;28;20506;-70
2024/01/02 03:54:03;;;;;;;24.90;9.70;;;;;;;;;;5066527;28;20021;-71
2024/01/02 03:56:49;;;;;;;37.13;10.80;;;;;;;;;;5071518;28;20020;-70
2024/01/02 03:59:36;;;;;;;25.25;9.40;;;;;;;;;;5071475;28;20024;-71
2024/01/02 04:02:21;;;;;;;33.35;11.98;;;;;;;;;;5056549;28;20032;-71
2024/01/02 04:05:07;;;;;;;35.88;10.48;;;;;;;;;;5068948;28;20055;-70
2024/01/02 04:07:53;;;;;;;26.67;9.25;;;;;;;;;;5071808;28;20032;-71
2024/01/02 04:10:39;;;;;;;27.05;9.32;;;;;;;;;;5068465;28;20402;-71
2024/01/02 04:13:25;;;;;;;31.83;11.07;;;;;;;;;;5071123;28;20021;-71
2024/01/02 04:16:10;;;;;;;31.27;9.85;;;;;;;;;;5068624;28;20405;-71
2024/01/02 04:18:56;;;;;;;38.42;11.40;;;;;;;;;;5036524;28;20112;-71
2024/01/02 04:21:42;;;;;;;39.85;10.93;;;;;;;;;;5052741;28;20079;-70
2024/01/02 04:24:27;;;;;;;34.95;11.10;;;;;;;;;;5067368;28;20016;-70
2024/01/02 04:27:13;;;;;;;30.63;10.60;;;;;;;;;;5070781;28;20020;-71
2024/01/02 04:29:59;;;;;;;31.23;10.32;;;;;;;;;;5056065;28;20021;-71
2024/01/02 04:32:44;;;;;;;29.40;11.38;;;;;;;;;;5051328;28;20025;-70
2024/01/02 04:35:30;;;;;;;26.50;11.00;;;;;;;;;;5068924;28;20446;-71
2024/01/02 04:38:16;;;;;;;29.00;10.65;;;;;;;;;;5070069;28;20017;-70
2024/01/02 04:41:03;;;;;;;36.30;10.65;;;;;;;;;;5063049;28;20074;-70
2024/01/02 04:43:48;;;;;;;42.78;11.38;;;;;;;;;;5040210;28;20035;-71
2024/01/02 04:46:37;;;;;;;36.40;11.05;;;;;;;;;;5043398;28;20029;-71
2024/01/02 04:49:23;;;;;;;33.10;11.98;;;;;;;;;;5051892;28;20063;-71
2024/01/02 04:52:08;;;;;;;30.73;13.20;;;;;;;;;;5056637;28;20052;-70
2024/01/02 04:54:54;;;;;;;30.05;11.75;;;;;;;;;;5071825;28;20024;-71
2024/01/02 04:57:40;;;;;;;32.42;12.18;;;;;;;;;;5065593;28;20036;-71
2024/01/02 05:00:25;;;;;;;32.55;11.95;;;;;;;;;;5068358;28;20028;-71
2024/01/02 05:03:11;;;;;;;31.75;13.13;;;;;;;;;;5071452;28;20099;-71
2024/01/02 05:05:57;;;;;;;29.70;12.32;;;;;;;;;;5069009;28;20508;-70
2024/01/02 05:08:42;;;;;;;29.98;12.00;;;;;;;;;;5065938;28;20400;-71
2024/01/02 05:11:28;;;;;;;25.85;11.35;;;;;;;;;;5051860;28;20032;-71
2024/01/02 05:14:14;;;;;;;32.00;10.52;;;;;;;;;;5056006;28;20021;-71
2024/01/02 05:17:00;;;;;;;24.38;11.32;;;;;;;;;;5060182;28;20043;-70
2024/01/02 05:19:46;;;;;;;30.60;10.48;;;;;;;;;;5059232;28;20056;-71
2024/01/02 05:22:31;;;;;;;39.38;10.63;;;;;;;;;;5057266;28;20440;-71
2024/01/02 05:25:17;;;;;;;29.23;11.07;;;;;;;;;;5054522;28;20057;-70
2024/01/02 05:28:03;;;;;;;26.75;10.70;;;;;;;;;;5059864;28;20021;-71
2024/01/02 05:30:48;;;;;;;39.65;11.25;;;;;;;;;;5054719;28;20406;-70
2024/01/02 05:33:34;;;;;;;24.45;9.52;;;;;;;;;;5064951;28;20131;-71
2024/01/02 05:36:19;;;;;;;36.67;10.18;;;;;;;;;;5054348;28;20053;-71
2024/01/02 05:39:07;;;;;;;18.90;9.75;;;;;;;;;;5045819;28;20039;-71
2024/01/02 05:41:53;;;;;;;25.95;9.55;;;;;;;;;;5054143;28;20033;-70
2024/01/02 05:44:38;;;;;;;25.98;10.43;;;;;;;;;;5062162;28;20024;-71
2024/01/02 05:47:24;;;;;;;26.60;9.77;;;;;;;;;;5074465;28;20013;-71
2024/01/02 05:50:10;;;;;;;22.88;9.07;;;;;;;;;;5073691;28;20016;-71
2024/01/02 05:52:57;;;;;;;28.10;10.15;;;;;;;;;;5065457;28;20025;-71
2024/01/02 05:55:43;;;;;;;24.77;9.35;;;;;;;;;;5054467;28;20029;-71
2024/01/02 05:58:28;;;;;;;29.83;9.00;;;;;;;;;;5074255;28;20032;-70
2024/01/02 06:01:14;;;;;;;24.63;8.68;;;;;;;;;;5070520;28;20477;-71
2024/01/02 06:03:59;;;;;;;19.73;8.45;;;;;;;;;;5055267;28;20083;-71
2024/01/02 06:06:45;;;;;;;23.92;9.27;;;;;;;;;;5055248;28;20033;-70
2024/01/02 06:09:31;;;;;;;26.08;8.02;;;;;;;;;;5054236;28;20029;-71
2024/01/02 06:12:16;;;;;;;24.83;8.13;;;;;;;;;;5053833;28;20028;-71
2024/01/02 06:15:02;;;;;;;22.02;7.40;;;;;;;;;;5075193;28;20082;-71
2024/01/02 06:17:48;;;;;;;18.13;7.90;;;;;;;;;;5059237;28;20028;-71
2024/01/02 06:20:34;;;;;;;29.40;8.43;;;;;;;;;;5058626;28;20486;-71
2024/01/02 06:23:20;;;;;;;18.08;7.38;;;;;;;;;;5052937;28;20031;-70
2024/01/02 06:26:06;;;;;;;21.95;8.27;;;;;;;;;;5064928;28;20045;-71
2024/01/02 06:28:51;;;;;;;21.42;8.10;;;;;;;;;;5069812;28;20017;-71
2024/01/02 06:31:37;;;;;;;21.00;7.82;;;;;;;;;;5070725;28;20024;-71
2024/01/02 06:34:22;;;;;;;24.42;7.78;;;;;;;;;;5068792;28;20433;-71
2024/01/02 06:37:08;;;;;;;26.10;8.25;;;;;;;;;;5057733;28;20056;-71
2024/01/02 06:39:54;;;;;;;18.00;8.60;;;;;;;;;;5064881;28;20021;-71
2024/01/02 06:42:39;;;;;;;16.50;7.32;;;;;;;;;;5053141;28;20032;-71
2024/01/02 06:45:25;;;;;;;20.40;8.43;;;;;;;;;;5059734;28;20024;-71
2024/01/02 06:48:11;;;;;;;25.58;7.53;;;;;;;;;;5055844;28;20044;-71
2024/01/02 06:50:56;;;;;;;20.08;8.00;;;;;;;;;;5053097;28;20025;-70
2024/01/02 06:53:42;;;;;;;18.20;7.55;;;;;;;;;;5059611;28;20057;-71
2024/01/02 06:56:28;;;;;;;25.27;9.10;;;;;;;;;;5052737;28;20027;-70
2024/01/02 06:59:13;;;;;;;22.27;7.13;;;;;;;;;;5060476;28;20060;-71
2024/01/02 07:01:59;;;;;;;20.20;7.45;;;;;;;;;;5053061;28;20029;-71
2024/01/02 07:04:44;;;;;;;20.30;7.28;;;;;;;;;;5054649;28;20024;-70
2024/01/02 07:07:30;;;;;;;25.83;9.05;;;;;;;;;;5069380;28;20020;-71
2024/01/02 07:10:16;;;;;;;23.05;6.50;;;;;;;;;;5073125;28;20028;-71
2024/01/02 07:13:02;;;;;;;21.08;7.38;;;;;;;;;;5071712;28;20032;-70
2024/01/02 07:15:48;;;;;;;18.45;6.88;;;;;;;;;;5067714;28;20013;-71
2024/01/02 07:18:33;;;;;;;28.85;7.88;;;;;;;;;;5052644;28;20051;-71
2024/01/02 07:21:19;;;;;;;23.02;6.20;;;;;;;;;;5059793;28;20493;-71
2024/01/02 07:24:05;;;;;;;19.67;7.78;;;;;;;;;;5072047;28;20025;-71
2024/01/02 07:26:50;;;;;;;19.42;7.70;;;;;;;;;;5068355;28;20059;-71
2024/01/02 07:29:36;;;;;;;26.67;8.13;;;;;;;;;;5072037;28;20502;-71
2024/01/02 07:32:22;;;;;;;17.67;5.82;;;;;;;;;;5070158;28;20046;-71
2024/01/02 07:35:07;;;;;;;19.75;6.60;;;;;;;;;;5067779;28;20021;-71
2024/01/02 07:37:53;;;;;;;19.00;6.57;;;;;;;;;;5071888;28;20035;-71
2024/01/02 07:40:39;;;;;;;16.95;8.07;;;;;;;;;;5073382;28;20102;-71
2024/01/02 07:43:24;;;;;;;15.02;6.97;;;;;;;;;;5072149;28;20486;-71
2024/01/02 07:46:10;;;;;;;22.63;6.60;;;;;;;;;;5050779;28;20028;-71
2024/01/02 07:48:56;;;;;;;15.60;7.55;;;;;;;;;;5052402;28;20021;-71
2024/01/02 07:51:41;;;;;;;18.98;6.10;;;;;;;;;;5052389;28;20017;-71
2024/01/02 07:54:27;;;;;;;24.98;7.07;;;;;;;;;;5043050;28;20032;-71
2024/01/02 07:57:12;;;;;;;17.13;5.35;;;;;;;;;;5051480;28;20087;-71
2024/01/02 07:59:58;;;;;;;18.40;6.38;;;;;;;;;;5062828;28;20036;-71
2024/01/02 08:02:44;;;;;;;15.95;6.90;;;;;;;;;;5071052;28;20031;-71
2024/01/02 08:05:29;;;;;;;13.18;6.05;;;;;;;;;;5066629;28;20056;-71
2024/01/02 08:08:15;;;;;;;17.48;6.18;;;;;;;;;;5051197;28;20029;-72
2024/01/02 08:11:00;;;;;;;14.88;6.78;;;;;;;;;;5051820;28;20032;-71
2024/01/02 08:13:46;;;;;;;17.20;5.85;;;;;;;;;;5069700;28;20143;-71
2024/01/02 08:16:32;;;;;;;15.48;5.93;;;;;;;;;;5071029;28;20030;-71
2024/01/02 08:19:18;;;;;;;19.13;6.53;;;;;;;;;;5068587;28;20580;-71
2024/01/02 08:22:04;;;;;;;13.80;5.10;;;;;;;;;;5057264;28;20024;-71
2024/01/02 08:24:50;;;;;;;15.30;5.15;;;;;;;;;;5058518;28;20024;-71
2024/01/02 08:27:35;;;;;;;12.10;5.45;;;;;;;;;;5051970;28;20017;-71
2024/01/02 08:30:21;;;;;;;10.88;4.65;;;;;;;;;;5068500;28;20037;-71
2024/01/02 08:33:07;;;;;;;23.38;5.00;;;;;;;;;;5070129;28;20108;-71
2024/01/02 08:35:52;;;;;;;14.07;4.55;;;;;;;;;;5057757;28;20025;-71
2024/01/02 08:38:39;;;;;;;13.82;5.70;;;;;;;;;;5051241;28;20025;-71
2024/01/02 08:41:25;;;;;;;11.25;5.13;;;;;;;;;;5043482;28;20039;-71
2024/01/02 08:44:11;;;;;;;12.85;4.60;;;;;;;;;;5050133;28;20021;-71
2024/01/02 08:46:56;;;;;;;15.80;5.85;;;;;;;;;;5061100;28;20032;-71
2024/01/02 08:49:42;;;;;;;11.20;5.70;;;;;;;;;;5071985;28;20079;-70
2024/01/02 08:52:28;;;;;;;16.58;4.82;;;;;;;;;;5070672;28;20500;-71
2024/01/02 08:55:14;;;;;;;13.38;4.25;;;;;;;;;;5056044;28;20017;-71
2024/01/02 08:58:00;;;;;;;19.70;5.05;;;;;;;;;;5042643;28;20029;-71
2024/01/02 09:00:46;;;;;;;12.48;5.68;;;;;;;;;;5056719;28;20024;-70
2024/01/02 09:03:32;;;;;;;11.80;4.88;;;;;;;;;;5058752;28;20087;-71
2024/01/02 09:06:18;;;;;;;15.93;5.65;;;;;;;;;;5055614;28;20029;-71
2024/01/02 09:09:04;;;;;;;12.93;5.53;;;;;;;;;;5068921;28;20024;-71
2024/01/02 09:11:50;;;;;;;20.08;5.05;;;;;;;;;;5070437;28;20052;-71
2024/01/02 09:14:36;;;;;;;7.93;3.90;;;;;;;;;;5072969;28;20504;-71
2024/01/02 09:17:21;;;;;;;10.77;4.63;;;;;;;;;;5064416;28;20029;-71
2024/01/02 09:20:08;;;;;;;18.52;6.20;;;;;;;;;;5068570;28;20063;-71
2024/01/02 09:22:53;;;;;;;14.43;4.43;;;;;;;;;;5068317;28;20032;-71
2024/01/02 09:25:44;;;;;;;14.68;4.43;;;;;;;;;;5054953;28;20403;-71
2024/01/02 09:28:30;;;;;;;17.23;5.22;;;;;;;;;;5047262;28;20032;-71
2024/01/02 09:31:18;;;;;;;9.45;4.63;;;;;;;;;;5054351;28;20024;-71
2024/01/02 09:34:04;;;;;;;7.55;3.85;;;;;;;;;;5056473;28;20392;-71
2024/01/02 09:36:51;;;;;;;18.13;4.85;;;;;;;;;;5054613;28;20027;-71
2024/01/02 09:39:37;;;;;;;11.63;4.45;;;;;;;;;;5056785;28;20498;-71
2024/01/02 09:42:48;;;;;;;13.88;4.78;;;;;;;;;;5040693;28;20028;-71
2024/01/02 09:45:47;;;;;;;8.85;4.45;;;;;;;;;;5040236;28;20029;-71
2024/01/02 09:49:08;;;;;;;18.75;4.38;;;;;;;;;;5061479;28;20447;-71
2024/01/02 09:52:15;;;;;;;8.65;3.75;;;;;;;;;;5052805;28;20034;-71
2024/01/02 09:55:29;;;;;;;12.35;4.18;;;;;;;;;;5065281;28;20508;-72
2024/01/02 09:58:18;;;;;;;14.02;4.50;;;;;;;;;;5073660;28;20222;-71
2024/01/02 10:01:32;;;;;;;11.27;4.15;;;;;;;;;;5072862;28;20020;-71
2024/01/02 10:04:40;;;;;;;9.48;3.80;;;;;;;;;;5060072;28;20071;-71
2024/01/02 10:07:45;;;;;;;11.52;3.30;;;;;;;;;;5073888;28;20029;-71
2024/01/02 10:10:35;;;;;;;9.15;4.80;;;;;;;;;;5057984;28;20657;-71
2024/01/02 10:13:25;;;;;;;11.07;3.63;;;;;;;;;;5050494;28;20052;-71
2024/01/02 10:16:13;;;;;;;12.75;3.83;;;;;;;;;;5052440;28;20103;-71
2024/01/02 10:19:12;;;;;;;13.00;4.40;;;;;;;;;;5054002;28;20017;-71
2024/01/02 10:22:19;;;;;;;14.95;3.63;;;;;;;;;;5038834;28;20025;-71
2024/01/02 10:25:09;;;;;;;9.32;3.22;;;;;;;;;;5039633;28;20259;-71
2024/01/02 10:28:08;;;;;;;19.33;4.72;;;;;;;;;;5053601;28;20101;-71
2024/01/02 10:31:06;;;;;;;10.27;5.00;;;;;;;;;;5039617;28;20024;-71
2024/01/02 10:34:13;;;;;;;10.10;3.75;;;;;;;;;;5039764;28;20027;-71
2024/01/02 10:37:04;;;;;;;12.18;3.97;;;;;;;;;;5052428;28;20021;-71
2024/01/02 10:40:07;;;;;;;7.80;3.00;;;;;;;;;;5053254;28;20135;-71
2024/01/02 10:43:07;;;;;;;5.95;3.50;;;;;;;;;;5039144;28;20029;-72
2024/01/02 10:46:18;;;;;;;6.95;3.05;;;;;;;;;;5037632;28;20048;-72
2024/01/02 10:49:23;;;;;;;13.23;3.33;;;;;;;;;;5052472;28;20055;-71
2024/01/02 10:52:18;;;;;;;8.90;3.45;;;;;;;;;;5052254;28;20029;-71
2024/01/02 10:55:18;;;;;;;13.50;3.60;;;;;;;;;;5038184;28;20135;-71
2024/01/02 10:58:15;;;;;;;14.30;4.32;;;;;;;;;;5053242;28;20478;-71
2024/01/02 11:01:06;;;;;;;;;;;;;;;;;;5040252;28;20036;-71
2024/01/02 11:04:06;;;;;;;9.15;3.08;;;;;;;;;;5039635;28;19916;-71
2024/01/02 11:06:56;;;;;;;10.18;3.60;;;;;;;;;;5038551;28;20029;-71
2024/01/02 11:09:57;;;;;;;12.48;4.35;;;;;;;;;;5039113;28;20100;-71
2024/01/02 11:13:01;;;;;;;5.50;3.50;;;;;;;;;;5051949;28;20086;-71
2024/01/02 11:15:47;;;;;;;7.90;3.25;;;;;;;;;;5038400;28;20029;-71
2024/01/02 11:18:34;;;;;;;8.27;4.07;;;;;;;;;;5052845;28;20025;-71
2024/01/02 11:21:23;;;;;;;7.57;2.78;;;;;;;;;;5038008;28;20028;-72
2024/01/02 11:24:12;;;;;;;10.25;3.05;;;;;;;;;;5052894;28;20129;-72
2024/01/02 11:27:00;;;;;;;6.70;3.03;;;;;;;;;;5051982;28;20047;-71
2024/01/02 11:29:48;;;;;;;9.98;3.40;;;;;;;;;;5038784;28;20021;-71
2024/01/02 11:33:01;;;;;;;7.43;2.50;;;;;;;;;;5038214;28;20028;-71
2024/01/02 11:36:09;;;;;;;7.20;3.20;;;;;;;;;;5052722;28;20052;-71
2024/01/02 11:39:09;;;;;;;9.57;3.40;;;;;;;;;;5038633;28;20021;-72
2024/01/02 11:42:09;;;;;;;5.13;2.88;;;;;;;;;;5052324;28;20017;-71
2024/01/02 11:45:08;;;;;;;5.20;2.38;;;;;;;;;;5037931;28;20037;-71
2024/01/02 11:48:08;;;;;;;2.92;2.53;;;;;;;;;;5044237;28;20028;-71
2024/01/02 11:51:11;;;;;;;4.80;2.88;;;;;;;;;;5056596;28;20165;-71
2024/01/02 11:53:59;;;;;;;4.93;2.97;;;;;;;;;;5036703;28;20025;-71
2024/01/02 11:56:45;;;;;;;5.20;2.55;;;;;;;;;;5051383;28;20036;-71
2024/01/02 11:59:31;;;;;;;5.97;3.13;;;;;;;;;;5038343;28;20095;-72
2024/01/02 12:02:42;;;;;;;8.05;2.15;;;;;;;;;;5051410;28;20441;-72
2024/01/02 12:05:38;;;;;;;3.83;2.47;;;;;;;;;;5051757;28;20028;-71
2024/01/02 12:08:27;;;;;;;3.30;2.55;;;;;;;;;;5038876;28;20036;-71
2024/01/02 12:11:14;;;;;;;6.35;2.13;;;;;;;;;;5038420;28;20029;-71
2024/01/02 12:14:11;;;;;;;4.85;2.30;;;;;;;;;;5036770;28;20033;-71
2024/01/02 12:17:00;;;;;;;4.50;2.83;;;;;;;;;;5052021;28;20029;-71
2024/01/02 12:19:47;;;;;;;7.53;1.80;;;;;;;;;;5037028;28;20489;-71
2024/01/02 12:22:33;;;;;;;3.72;2.50;;;;;;;;;;5037152;28;20028;-71
2024/01/02 12:25:19;;;;;;;3.00;2.25;;;;;;;;;;5036615;28;20100;-71
2024/01/02 12:28:05;;;;;;;5.00;3.08;;;;;;;;;;5036676;28;20113;-71
2024/01/02 12:31:25;;;;;;;3.35;2.65;;;;;;;;;;5037803;28;20021;-72
2024/01/02 12:34:28;;;;;;;3.40;2.80;;;;;;;;;;5037451;28;20021;-71
2024/01/02 12:37:19;;;;;;;4.50;2.30;;;;;;;;;;5038416;28;20086;-72
2024/01/02 12:40:06;;;;;;;3.15;1.40;;;;;;;;;;5037110;28;20460;-71
2024/01/02 12:42:53;;;;;;;2.60;1.95;;;;;;;;;;5036984;28;20029;-71
2024/01/02 12:45:44;;;;;;;2.50;2.30;;;;;;;;;;5051607;28;20027;-71
2024/01/02 12:48:32;;;;;;;;;;;;;;;;;;5038218;28;20032;-71
2024/01/02 12:51:19;;;;;;;3.22;2.33;;;;;;;;;;5036912;28;19908;-72
2024/01/02 12:54:08;;;;;;;4.93;2.60;;;;;;;;;;5037043;28;20029;-71
2024/01/02 12:57:04;;;;;;;3.30;2.38;;;;;;;;;;5036842;28;20112;-71
2024/01/02 12:59:52;;;;;;;2.55;1.70;;;;;;;;;;5037046;28;20402;-71
2024/01/02 13:02:37;;;;;;;4.93;2.45;;;;;;;;;;5051636;28;20044;-72
2024/01/02 13:05:25;;;;;;;4.22;1.92;;;;;;;;;;5051567;28;20091;-71
2024/01/02 13:08:19;;;;;;;3.40;2.38;;;;;;;;;;5038022;28;20039;-71
2024/01/02 13:11:05;;;;;;;2.20;2.05;;;;;;;;;;5036779;28;20036;-71
2024/01/02 13:13:51;;;;;;;2.58;2.13;;;;;;;;;;5051859;28;20478;-71
2024/01/02 13:16:38;;;;;;;3.42;2.20;;;;;;;;;;5036376;28;20116;-71
2024/01/02 13:19:23;;;;;;;3.80;2.28;;;;;;;;;;5051714;28;20083;-71
2024/01/02 13:22:09;;;;;;;2.47;2.08;;;;;;;;;;5036864;28;20024;-72
2024/01/02 13:24:55;;;;;;;4.78;2.35;;;;;;;;;;5035656;28;20036;-71
2024/01/02 13:27:40;;;;;;;2.35;2.15;;;;;;;;;;5051124;28;20013;-71
2024/01/02 13:30:44;;;;;;;2.70;2.25;;;;;;;;;;5036743;28;20029;-71
2024/01/02 13:33:38;;;;;;;3.00;2.05;;;;;;;;;;5036063;28;20067;-71
2024/01/02 13:36:24;;;;;;;2.30;2.10;;;;;;;;;;5037526;28;20118;-71
2024/01/02 13:39:10;;;;;;;2.25;1.75;;;;;;;;;;5054369;28;20028;-72
2024/01/02 13:41:56;;;;;;;2.50;2.30;;;;;;;;;;5039046;28;20383;-71
2024/01/02 13:44:48;;;;;;;4.20;2.45;;;;;;;;;;5040632;28;20070;-71
2024/01/02 13:47:34;;;;;;;3.30;1.98;;;;;;;;;;5054803;28;20104;-71
2024/01/02 13:50:34;;;;;;;4.10;2.55;;;;;;;;;;5055287;28;20021;-71
2024/01/02 13:53:21;;;;;;;4.07;2.10;;;;;;;;;;5040628;28;20556;-72
2024/01/02 13:56:07;;;;;;;2.20;2.00;;;;;;;;;;5053967;28;20036;-71
2024/01/02 13:59:04;;;;;;;3.15;2.42;;;;;;;;;;5077000;23;20041;-66
2024/01/02 14:01:50;;;;;;;3.15;2.15;;;;;;;;;;5054205;28;20033;-66
2024/01/02 14:04:36;;;;;;;3.30;2.28;;;;;;;;;;5072517;28;20017;-67
2024/01/02 14:07:21;;;;;;;4.00;2.42;;;;;;;;;;5074108;28;20383;-67
2024/01/02 14:10:07;;;;;;;3.65;2.40;;;;;;;;;;5074301;28;20043;-67
2024/01/02 14:12:53;;;;;;;2.60;2.40;;;;;;;;;;5059197;28;20123;-68
2024/01/02 14:15:39;;;;;;;2.50;2.30;;;;;;;;;;5073441;28;20103;-67
2024/01/02 14:18:26;;;;;;;1.95;1.83;;;;;;;;;;5058583;28;20024;-66
2024/01/02 14:21:13;;;;;;;2.40;1.92;;;;;;;;;;5059291;28;20405;-67
2024/01/02 14:24:04;;;;;;;2.40;2.20;;;;;;;;;;5074051;28;20111;-66
2024/01/02 14:27:13;;;;;;;3.22;3.03;;;;;;;;;;5074931;28;20103;-66
2024/01/02 14:30:23;;;;;;;4.75;1.92;;;;;;;;;;5057993;28;20378;-66
2024/01/02 14:33:46;;;;;;;5.50;3.63;;;;;;;;;;5073361;28;20020;-66
2024/01/02 14:36:44;;;;;;;10.80;6.47;;;;;;;;;;5063959;28;20429;-65
2024/01/02 14:39:43;;;;;;;8.73;7.50;;;;;;;;;;5067717;28;20090;-66
2024/01/02 14:42:48;;;;;;;4.05;3.55;;;;;;;;;;5045962;28;20520;-65
2024/01/02 14:45:46;;;;;;;5.28;4.50;;;;;;;;;;5062829;28;20056;-65
2024/01/02 14:48:56;;;;;;;7.60;4.63;;;;;;;;;;5047592;28;20383;-66
2024/01/02 14:52:04;;;;;;;5.53;3.40;;;;;;;;;;5055883;28;20031;-65
2024/01/02 14:55:08;;;;;;;5.95;4.50;;;;;;;;;;5061620;28;20033;-65
2024/01/02 14:57:58;;;;;;;5.00;3.58;;;;;;;;;;5066715;28;20028;-66
2024/01/02 15:00:59;;;;;;;;;;;;;;;;;;5053249;28;20075;-66
2024/01/02 15:03:52;;;;;;;5.45;3.00;;;;;;;;;;5057536;28;19915;-66
2024/01/02 15:06:41;;;;;;;7.07;3.60;;;;;;;;;;5071887;28;20051;-67
2024/01/02 15:09:36;;;;;;;4.05;3.65;;;;;;;;;;5058694;28;20019;-66
2024/01/02 15:12:35;;;;;;;6.40;2.92;;;;;;;;;;5072855;28;20024;-66
2024/01/02 15:15:33;;;;;;;6.43;4.38;;;;;;;;;;5073003;28;20031;-66
2024/01/02 15:18:35;;;;;;;3.95;3.55;;;;;;;;;;5057211;28;20021;-66
2024/01/02 15:21:49;;;;;;;4.93;3.83;;;;;;;;;;5072970;28;20060;-66
2024/01/02 15:24:58;;;;;;;5.32;4.30;;;;;;;;;;5072595;28;20493;-65
2024/01/02 15:28:13;;;;;;;6.75;4.82;;;;;;;;;;5071861;28;20024;-66
2024/01/02 15:31:03;;;;;;;4.68;3.03;;;;;;;;;;5072874;28;20020;-66
2024/01/02 15:33:56;;;;;;;3.85;3.35;;;;;;;;;;5072284;28;20509;-66
2024/01/02 15:36:49;;;;;;;6.97;4.93;;;;;;;;;;5058177;28;20463;-66
2024/01/02 15:39:39;;;;;;;6.88;4.43;;;;;;;;;;5058855;28;20062;-66
2024/01/02 15:42:34;;;;;;;6.13;3.45;;;;;;;;;;5068769;28;20114;-65
2024/01/02 15:45:23;;;;;;;4.18;2.88;;;;;;;;;;5064113;28;20375;-65
2024/01/02 15:48:26;;;;;;;4.43;4.03;;;;;;;;;;5056036;28;20086;-68
2024/01/02 15:51:18;;;;;;;3.55;3.25;;;;;;;;;;5054102;28;20028;-65
2024/01/02 15:54:07;;;;;;;4.55;3.97;;;;;;;;;;5067098;28;20497;-66
2024/01/02 15:56:55;;;;;;;4.47;3.97;;;;;;;;;;5072471;28;20035;-67
2024/01/02 16:00:05;;;;;;;5.53;3.85;;;;;;;;;;5056204;28;20028;-66
2024/01/02 16:03:09;;;;;;;3.65;2.83;;;;;;;;;;5070614;28;20029;-66
2024/01/02 16:06:22;;;;;;;4.30;3.10;;;;;;;;;;5071169;28;20067;-66
2024/01/02 16:09:25;;;;;;;7.75;3.03;;;;;;;;;;5056992;28;20025;-66
2024/01/02 16:12:19;;;;;;;4.35;2.75;;;;;;;;;;5053109;28;20028;-66
2024/01/02 16:15:43;;;;;;;3.75;3.35;;;;;;;;;;5050422;28;20447;-66
2024/01/02 16:18:38;;;;;;;3.78;2.95;;;;;;;;;;5071858;28;20023;-66
2024/01/02 16:22:02;;;;;;;3.33;3.03;;;;;;;;;;5057172;28;20158;-66
2024/01/02 16:25:04;;;;;;;3.90;3.40;;;;;;;;;;5058175;28;20423;-66
2024/01/02 16:28:24;;;;;;;4.80;3.03;;;;;;;;;;5057088;28;20031;-68
2024/01/02 16:31:21;;;;;;;6.50;3.65;;;;;;;;;;5072037;28;20021;-66
2024/01/02 16:34:31;;;;;;;3.42;3.10;;;;;;;;;;5071120;28;20027;-66
2024/01/02 16:37:40;;;;;;;5.65;3.28;;;;;;;;;;5070879;28;20032;-68
2024/01/02 16:41:00;;;;;;;4.00;2.92;;;;;;;;;;5056087;28;20029;-66
2024/01/02 16:43:46;;;;;;;5.43;3.58;;;;;;;;;;5071382;28;20024;-66
2024/01/02 16:46:33;;;;;;;4.57;3.10;;;;;;;;;;5066934;28;20036;-66
2024/01/02 16:49:20;;;;;;;5.10;3.00;;;;;;;;;;5071113;28;20092;-68